Time;durP1;ratioP1;P1;durP2;ratioP2;P2;SDS_P1;SDS_P2;PMS_P1;PMS_P2;Temp;Humidity;BMP_temperature;BMP_pressure;BME280_temperature;BME280_humidity;BME280_pressure;Samples;Min_cycle;Max_cycle;Signal;HPM_P1;HPM_P2
2021/05/21 00:01:34;;;;;;;2.47;2.30;;;9.70;99.90;;;;;;6175697;23;20492;-91
2021/05/21 00:04:12;;;;;;;2.93;2.30;;;9.80;99.90;;;;;;6176357;23;20170;-91
2021/05/21 00:06:38;;;;;;;2.60;2.40;;;9.90;99.90;;;;;;6176748;23;20772;-91
2021/05/21 00:09:04;;;;;;;2.40;2.20;;;10.10;99.90;;;;;;6176196;23;20403;-91
2021/05/21 00:11:30;;;;;;;3.00;2.43;;;10.10;99.90;;;;;;6177753;23;20168;-91
2021/05/21 00:13:56;;;;;;;2.37;2.10;;;10.20;99.90;;;;;;6176541;23;20490;-91
2021/05/21 00:16:23;;;;;;;2.90;2.70;;;10.10;99.90;;;;;;6176780;23;20621;-89
2021/05/21 00:18:51;;;;;;;2.40;2.23;;;10.10;99.90;;;;;;6203301;23;20159;-90
2021/05/21 00:21:17;;;;;;;2.60;2.40;;;10.00;99.90;;;;;;6177390;23;20430;-91
2021/05/21 00:23:43;;;;;;;3.20;2.00;;;9.90;99.90;;;;;;6177225;23;20395;-90
2021/05/21 00:26:08;;;;;;;2.10;2.00;;;9.90;99.90;;;;;;6177937;23;20411;-91
2021/05/21 00:28:34;;;;;;;2.10;2.00;;;9.80;99.90;;;;;;6174159;23;20198;-91
2021/05/21 00:31:00;;;;;;;2.80;2.60;;;9.80;99.90;;;;;;6178948;23;20968;-91
2021/05/21 00:33:30;;;;;;;2.47;2.20;;;9.90;99.90;;;;;;6174736;23;20251;-89
2021/05/21 00:35:56;;;;;;;2.50;2.30;;;9.80;99.90;;;;;;6204921;23;20868;-90
2021/05/21 00:38:22;;;;;;;2.37;2.27;;;9.90;99.90;;;;;;6176401;23;20449;-90
2021/05/21 00:40:48;;;;;;;2.90;2.50;;;9.80;99.90;;;;;;6176657;23;20191;-90
2021/05/21 00:43:16;;;;;;;2.87;2.67;;;9.80;99.90;;;;;;6177191;23;20186;-90
2021/05/21 00:45:42;;;;;;;2.80;2.60;;;9.70;99.90;;;;;;6178252;23;20451;-90
2021/05/21 00:48:14;;;;;;;2.40;2.23;;;9.80;99.90;;;;;;6152864;23;20569;-90
2021/05/21 00:50:41;;;;;;;3.43;2.70;;;9.90;99.90;;;;;;6197774;23;20403;-90
2021/05/21 00:53:08;;;;;;;2.90;2.70;;;10.00;99.90;;;;;;6174597;23;20405;-90
2021/05/21 00:55:34;;;;;;;4.07;3.03;;;10.10;99.90;;;;;;6177705;23;20170;-90
2021/05/21 00:58:01;;;;;;;3.73;3.00;;;10.20;99.90;;;;;;6174986;23;20398;-90
2021/05/21 01:00:27;;;;;;;3.10;2.90;;;10.20;99.90;;;;;;6177058;23;20254;-90
2021/05/21 01:02:52;;;;;;;2.70;2.50;;;10.10;99.90;;;;;;6175938;23;20885;-90
2021/05/21 01:05:18;;;;;;;3.00;2.70;;;10.00;99.90;;;;;;6175822;23;20809;-90
2021/05/21 01:07:44;;;;;;;2.70;2.50;;;10.00;99.90;;;;;;6175968;23;20278;-90
2021/05/21 01:10:10;;;;;;;2.43;2.33;;;10.00;99.90;;;;;;6151420;23;20623;-90
2021/05/21 01:12:36;;;;;;;2.53;2.33;;;10.20;99.90;;;;;;6174641;23;20176;-90
2021/05/21 01:15:02;;;;;;;3.40;3.10;;;10.30;99.90;;;;;;6174287;23;20413;-90
2021/05/21 01:17:32;;;;;;;3.00;2.80;;;10.30;99.90;;;;;;6175636;23;20171;-89
2021/05/21 01:19:58;;;;;;;4.80;2.27;;;10.40;99.90;;;;;;6175760;23;20410;-90
2021/05/21 01:22:25;;;;;;;2.90;2.40;;;10.60;99.90;;;;;;6174178;23;20481;-90
2021/05/21 01:24:50;;;;;;;2.73;2.53;;;10.60;99.90;;;;;;6176279;23;20429;-91
2021/05/21 01:27:40;;;;;;;2.57;2.37;;;10.60;99.90;;;;;;6176625;23;20787;-91
2021/05/21 01:30:07;;;;;;;2.23;2.13;;;10.60;99.90;;;;;;6176902;23;20168;-90
2021/05/21 01:32:33;;;;;;;2.30;2.20;;;10.60;99.90;;;;;;6175767;23;20631;-91
2021/05/21 01:34:59;;;;;;;2.93;2.37;;;10.60;99.90;;;;;;6177575;23;20379;-91
2021/05/21 01:37:25;;;;;;;2.13;2.00;;;10.60;99.90;;;;;;6176008;23;20229;-91
2021/05/21 01:39:52;;;;;;;2.33;2.20;;;10.50;99.90;;;;;;6175907;23;20394;-90
2021/05/21 01:42:20;;;;;;;2.17;2.07;;;10.50;99.90;;;;;;6202131;23;20255;-90
2021/05/21 01:44:50;;;;;;;2.00;1.90;;;10.50;99.90;;;;;;6177670;23;20722;-91
2021/05/21 01:47:15;;;;;;;2.53;2.33;;;10.60;99.90;;;;;;6176903;23;20517;-92
2021/05/21 01:49:41;;;;;;;2.50;2.30;;;10.50;99.90;;;;;;6175295;23;20426;-91
2021/05/21 01:52:07;;;;;;;2.40;2.20;;;10.50;99.90;;;;;;6178121;23;20171;-92
2021/05/21 01:54:33;;;;;;;2.93;2.20;;;10.60;99.90;;;;;;6177170;23;20164;-90
2021/05/21 01:57:00;;;;;;;3.17;2.40;;;10.50;99.90;;;;;;6175363;23;20609;-90
2021/05/21 01:59:27;;;;;;;2.63;1.97;;;10.50;99.90;;;;;;6177309;23;20487;-89
2021/05/21 02:01:53;;;;;;;3.00;2.30;;;10.60;99.90;;;;;;6176969;23;20401;-90
2021/05/21 02:04:37;;;;;;;2.23;2.13;;;10.50;99.90;;;;;;6176997;23;20386;-90
2021/05/21 02:07:04;;;;;;;2.50;2.30;;;10.50;99.90;;;;;;6176457;23;20437;-90
2021/05/21 02:09:47;;;;;;;2.73;2.53;;;10.50;99.90;;;;;;6176939;23;20402;-90
2021/05/21 02:12:13;;;;;;;2.40;2.20;;;10.50;99.90;;;;;;6178010;23;20783;-90
2021/05/21 02:14:39;;;;;;;2.10;2.00;;;10.40;99.90;;;;;;6177218;23;20398;-90
2021/05/21 02:17:05;;;;;;;2.63;2.43;;;10.40;99.90;;;;;;6171722;23;20512;-91
2021/05/21 02:19:31;;;;;;;3.10;2.27;;;10.30;99.90;;;;;;6176437;23;20485;-91
2021/05/21 02:21:57;;;;;;;2.40;2.20;;;10.30;99.90;;;;;;6175340;23;20988;-91
2021/05/21 02:24:23;;;;;;;2.50;2.30;;;10.40;99.90;;;;;;6176509;23;20180;-91
2021/05/21 02:26:48;;;;;;;2.27;2.07;;;10.40;99.90;;;;;;6176652;23;20193;-91
2021/05/21 02:29:14;;;;;;;2.50;2.30;;;10.40;99.90;;;;;;6176472;23;20179;-91
2021/05/21 02:31:40;;;;;;;2.37;2.23;;;10.40;99.90;;;;;;6178150;23;20164;-90
2021/05/21 02:34:05;;;;;;;2.60;2.20;;;10.40;99.90;;;;;;6175011;23;20597;-91
2021/05/21 02:36:31;;;;;;;2.53;2.33;;;10.40;99.90;;;;;;6176034;23;20500;-90
2021/05/21 02:38:58;;;;;;;2.37;2.13;;;10.30;99.90;;;;;;6175857;23;20243;-91
2021/05/21 02:41:24;;;;;;;2.20;2.00;;;10.40;99.90;;;;;;6151918;23;20259;-90
2021/05/21 02:43:50;;;;;;;2.07;1.97;;;10.40;99.90;;;;;;6176362;23;20430;-91
2021/05/21 02:46:15;;;;;;;2.00;1.90;;;10.40;99.90;;;;;;6176947;23;20215;-91
2021/05/21 02:48:41;;;;;;;4.20;2.63;;;10.40;99.90;;;;;;6176978;23;20190;-91
2021/05/21 02:51:08;;;;;;;2.23;2.13;;;10.40;99.90;;;;;;6177061;23;20239;-91
2021/05/21 02:53:34;;;;;;;2.40;2.20;;;10.40;99.90;;;;;;6172854;23;20190;-91
2021/05/21 02:56:00;;;;;;;2.13;2.03;;;10.30;99.90;;;;;;6176761;23;20461;-90
2021/05/21 02:58:26;;;;;;;2.20;1.87;;;10.30;99.90;;;;;;6177292;23;20873;-90
2021/05/21 03:00:51;;;;;;;2.00;1.90;;;10.20;99.90;;;;;;6175688;23;20668;-91
2021/05/21 03:03:17;;;;;;;2.43;2.20;;;10.10;99.90;;;;;;6176157;23;20237;-90
2021/05/21 03:05:43;;;;;;;2.10;1.90;;;10.10;99.90;;;;;;6177012;23;20218;-91
2021/05/21 03:08:09;;;;;;;2.23;2.03;;;10.10;99.90;;;;;;6178769;23;20278;-91
2021/05/21 03:10:35;;;;;;;2.50;2.13;;;10.00;99.90;;;;;;6178108;23;20242;-90
2021/05/21 03:13:01;;;;;;;2.17;2.07;;;9.90;99.90;;;;;;6179895;23;20426;-91
2021/05/21 03:15:28;;;;;;;1.97;1.87;;;9.80;99.90;;;;;;6177669;23;20206;-91
2021/05/21 03:17:54;;;;;;;1.80;1.70;;;9.70;99.90;;;;;;6179729;23;20215;-91
2021/05/21 03:20:20;;;;;;;2.07;1.87;;;9.60;99.90;;;;;;6178283;23;20382;-91
2021/05/21 03:22:46;;;;;;;2.00;1.90;;;9.60;99.90;;;;;;6176224;23;20172;-91
2021/05/21 03:25:12;;;;;;;1.77;1.67;;;9.50;99.90;;;;;;6180424;23;20433;-91
2021/05/21 03:27:38;;;;;;;2.30;2.10;;;9.50;99.90;;;;;;6179172;23;20190;-91
2021/05/21 03:30:06;;;;;;;1.77;1.67;;;9.40;99.90;;;;;;6179572;23;20463;-92
2021/05/21 03:32:32;;;;;;;3.90;2.00;;;9.40;99.90;;;;;;6178845;23;20403;-91
2021/05/21 03:35:00;;;;;;;1.87;1.67;;;9.50;99.90;;;;;;6172340;23;20858;-93
2021/05/21 03:37:27;;;;;;;1.50;1.40;;;9.60;99.90;;;;;;6178938;23;20175;-92
2021/05/21 03:39:53;;;;;;;2.00;1.50;;;9.80;99.90;;;;;;6180266;23;20481;-93
2021/05/21 03:42:19;;;;;;;2.50;1.70;;;10.00;99.90;;;;;;6179941;23;20851;-92
2021/05/21 03:44:45;;;;;;;1.80;1.70;;;10.00;99.90;;;;;;6179632;23;20716;-92
2021/05/21 03:47:11;;;;;;;2.00;1.90;;;10.20;99.90;;;;;;6174097;23;20525;-91
2021/05/21 03:49:37;;;;;;;1.80;1.70;;;10.10;99.90;;;;;;6179542;23;20403;-90
2021/05/21 03:52:03;;;;;;;1.77;1.63;;;10.10;99.90;;;;;;6179312;23;20425;-91
2021/05/21 03:54:29;;;;;;;4.30;1.90;;;10.00;99.90;;;;;;6179113;23;20403;-91
2021/05/21 03:56:55;;;;;;;2.03;1.50;;;10.10;99.90;;;;;;6179040;23;20910;-90
2021/05/21 03:59:21;;;;;;;2.43;1.93;;;10.10;99.90;;;;;;6177664;23;20621;-90
2021/05/21 04:01:48;;;;;;;2.23;2.03;;;10.10;99.90;;;;;;6179004;23;20156;-91
2021/05/21 04:04:14;;;;;;;1.70;1.60;;;10.10;99.90;;;;;;6177797;23;20167;-90
2021/05/21 04:06:40;;;;;;;2.80;2.60;;;10.10;99.90;;;;;;6177810;23;20512;-91
2021/05/21 04:09:06;;;;;;;1.57;1.47;;;10.10;99.90;;;;;;6179480;23;20407;-91
2021/05/21 04:11:37;;;;;;;1.80;1.70;;;10.20;99.90;;;;;;6178551;23;20532;-91
2021/05/21 04:14:04;;;;;;;1.60;1.50;;;10.30;99.90;;;;;;6175403;23;20403;-91
2021/05/21 04:16:30;;;;;;;4.13;2.10;;;10.30;99.90;;;;;;6178216;23;20483;-91
2021/05/21 04:18:55;;;;;;;1.90;1.80;;;10.30;99.90;;;;;;6178411;23;20474;-91
2021/05/21 04:21:21;;;;;;;1.80;1.70;;;10.40;99.90;;;;;;6179285;23;20186;-95
2021/05/21 04:23:48;;;;;;;5.33;1.70;;;10.40;99.90;;;;;;6179750;23;20164;-93
2021/05/21 04:26:51;;;;;;;1.97;1.87;;;10.50;99.90;;;;;;6179207;23;20186;-94
2021/05/21 04:29:17;;;;;;;2.37;1.80;;;10.40;99.90;;;;;;6177836;23;20410;-94
2021/05/21 04:31:43;;;;;;;1.70;1.60;;;10.50;99.90;;;;;;6181493;23;20788;-89
2021/05/21 04:34:31;;;;;;;2.33;2.13;;;10.50;99.90;;;;;;6205849;23;20845;-89
2021/05/21 04:36:58;;;;;;;1.73;1.63;;;10.60;99.90;;;;;;6205574;23;20502;-87
2021/05/21 04:39:25;;;;;;;3.00;1.93;;;10.50;99.90;;;;;;6171104;23;20917;-87
2021/05/21 04:41:51;;;;;;;5.20;1.93;;;10.50;99.90;;;;;;6177193;23;20395;-88
2021/05/21 04:44:16;;;;;;;1.80;1.70;;;10.50;99.90;;;;;;6179299;23;20395;-88
2021/05/21 04:46:42;;;;;;;2.30;1.50;;;10.60;99.90;;;;;;6178664;23;20426;-88
2021/05/21 04:49:08;;;;;;;1.73;1.63;;;10.70;99.90;;;;;;6202553;23;20534;-88
2021/05/21 04:51:34;;;;;;;2.20;1.70;;;10.80;99.90;;;;;;6179508;23;20156;-90
2021/05/21 04:54:01;;;;;;;1.50;1.40;;;10.90;99.90;;;;;;6179963;23;20395;-90
2021/05/21 04:56:32;;;;;;;1.77;1.67;;;11.00;99.90;;;;;;6174311;23;20621;-90
2021/05/21 04:58:57;;;;;;;2.43;1.40;;;11.10;99.90;;;;;;6176077;23;20457;-91
2021/05/21 05:01:24;;;;;;;1.33;1.33;;;11.20;99.90;;;;;;6180339;23;20407;-91
2021/05/21 05:03:57;;;;;;;9.07;1.60;;;11.30;99.90;;;;;;6178679;23;20225;-89
2021/05/21 05:06:23;;;;;;;1.63;1.53;;;11.50;99.90;;;;;;6200099;23;20442;-92
2021/05/21 05:09:06;;;;;;;1.50;1.40;;;11.60;99.90;;;;;;6176531;23;20442;-90
2021/05/21 09:33:23;;;;;;;2.73;1.20;;;15.10;97.50;;;;;;6169894;23;20906;-95
2021/05/21 09:36:09;;;;;;;1.90;1.30;;;15.10;97.90;;;;;;6183199;23;20403;-96
2021/05/21 10:01:44;;;;;;;0.80;0.80;;;15.40;97.00;;;;;;6244801;22;20439;-94
2021/05/21 10:04:18;;;;;;;1.10;0.97;;;15.30;96.50;;;;;;6249805;23;20390;-92
2021/05/21 10:07:05;;;;;;;7.27;1.40;;;15.20;96.90;;;;;;6237981;23;20441;-93
2021/05/21 10:09:34;;;;;;;14.17;1.73;;;15.20;97.00;;;;;;6217859;23;20405;-94
2021/05/21 10:12:02;;;;;;;36.00;5.77;;;15.20;97.50;;;;;;6221775;23;20435;-93
2021/05/21 10:14:28;;;;;;;1.13;1.10;;;15.10;98.60;;;;;;6240865;23;20386;-96
2021/05/21 10:16:57;;;;;;;3.93;1.20;;;15.00;99.20;;;;;;6189092;23;20417;-94
2021/05/21 10:19:25;;;;;;;2.10;1.40;;;15.00;99.80;;;;;;6241741;23;20162;-95
2021/05/21 10:21:57;;;;;;;2.80;1.50;;;14.80;99.90;;;;;;6215574;23;20398;-93
2021/05/21 10:24:27;;;;;;;2.53;1.17;;;14.80;99.90;;;;;;6217027;23;20404;-93
2021/05/21 10:27:08;;;;;;;2.10;1.10;;;14.80;99.90;;;;;;6213810;23;20433;-92
2021/05/21 10:29:38;;;;;;;1.40;1.00;;;14.80;99.90;;;;;;6214276;23;20402;-95
2021/05/21 10:32:30;;;;;;;1.60;1.50;;;14.70;99.90;;;;;;6239018;23;20947;-91
2021/05/21 10:34:59;;;;;;;2.60;1.10;;;14.70;99.90;;;;;;6223833;23;20401;-96
2021/05/21 10:37:31;;;;;;;1.23;0.87;;;14.80;99.90;;;;;;6220565;23;20417;-93
2021/05/21 10:40:07;;;;;;;1.13;1.10;;;14.80;99.90;;;;;;6214735;23;20394;-93
2021/05/21 10:43:00;;;;;;;2.40;0.97;;;14.70;99.90;;;;;;6215343;23;20389;-94
2021/05/21 10:45:26;;;;;;;1.73;0.80;;;14.60;99.90;;;;;;6213113;23;20480;-93
2021/05/21 10:48:07;;;;;;;3.47;1.10;;;14.60;99.90;;;;;;6216223;23;20441;-90
2021/05/21 10:50:38;;;;;;;2.83;0.90;;;14.60;99.90;;;;;;6216328;23;20393;-93
2021/05/21 10:53:10;;;;;;;1.90;1.00;;;14.70;99.70;;;;;;6215326;23;20746;-92
2021/05/21 10:55:46;;;;;;;0.77;0.60;;;14.70;99.90;;;;;;6217039;23;20390;-92
2021/05/21 10:58:24;;;;;;;0.77;0.77;;;14.50;99.90;;;;;;6218506;23;20408;-92
2021/05/21 11:01:17;;;;;;;1.57;0.80;;;14.50;99.90;;;;;;6215795;23;20405;-92
2021/05/21 11:04:02;;;;;;;0.87;0.87;;;14.50;99.90;;;;;;6180283;23;20889;-91
2021/05/21 11:06:33;;;;;;;0.80;0.80;;;14.40;99.90;;;;;;6187193;23;20417;-93
2021/05/21 11:09:05;;;;;;;0.97;0.80;;;14.50;99.90;;;;;;6213251;23;20402;-92
2021/05/21 11:11:48;;;;;;;0.70;0.70;;;14.60;99.90;;;;;;6184554;23;20400;-93
2021/05/21 11:14:23;;;;;;;0.70;0.70;;;14.50;99.90;;;;;;6188211;23;20422;-93
2021/05/21 11:16:53;;;;;;;1.13;0.70;;;14.70;99.90;;;;;;6189429;23;20390;-91
2021/05/21 11:19:21;;;;;;;1.07;0.70;;;14.60;99.90;;;;;;6187646;23;20403;-92
2021/05/21 11:21:51;;;;;;;0.83;0.83;;;14.60;99.90;;;;;;6188359;23;20397;-92
2021/05/21 11:24:35;;;;;;;4.10;1.10;;;14.70;99.90;;;;;;6185956;23;20437;-93
2021/05/21 11:27:01;;;;;;;3.20;0.80;;;14.90;99.90;;;;;;6210565;23;20429;-92
2021/05/21 11:29:27;;;;;;;2.27;1.00;;;15.10;99.90;;;;;;6189391;23;20390;-92
2021/05/21 11:31:53;;;;;;;0.93;0.63;;;15.00;99.90;;;;;;6189389;23;20399;-93
2021/05/21 11:34:20;;;;;;;1.70;1.07;;;15.00;99.90;;;;;;6189296;23;20209;-92
2021/05/21 11:36:46;;;;;;;1.07;0.97;;;15.00;99.90;;;;;;6185098;23;20419;-93
2021/05/21 11:39:14;;;;;;;0.60;0.60;;;15.20;99.70;;;;;;6219197;23;20411;-91
2021/05/21 11:41:44;;;;;;;1.20;0.70;;;15.30;98.30;;;;;;6189959;23;20393;-92
2021/05/21 11:44:13;;;;;;;0.60;0.60;;;15.30;98.20;;;;;;6182834;23;20403;-95
2021/05/21 11:46:43;;;;;;;1.47;0.70;;;15.40;98.50;;;;;;6181675;23;20438;-96
2021/05/21 11:49:53;;;;;;;0.70;0.60;;;15.40;98.60;;;;;;6206548;23;20421;-92
2021/05/21 11:52:19;;;;;;;0.80;0.80;;;15.50;98.80;;;;;;6207239;23;21135;-90
2021/05/21 11:54:45;;;;;;;1.30;0.80;;;15.60;98.70;;;;;;6204572;23;20402;-90
2021/05/21 11:57:16;;;;;;;0.67;0.67;;;15.60;97.90;;;;;;6206969;23;20398;-95
2021/05/21 11:59:42;;;;;;;4.13;0.77;;;15.40;98.60;;;;;;6183852;23;20374;-93
2021/05/21 12:02:14;;;;;;;1.80;0.90;;;15.40;99.00;;;;;;6198664;23;20414;-91
2021/05/21 12:04:41;;;;;;;1.50;0.77;;;15.20;98.20;;;;;;6236966;23;20162;-93
2021/05/21 12:07:17;;;;;;;3.57;0.80;;;15.10;98.70;;;;;;6238701;22;20513;-91
2021/05/21 12:10:04;;;;;;;1.43;0.90;;;15.10;98.10;;;;;;6238788;22;20588;-93
2021/05/21 12:12:32;;;;;;;1.67;0.87;;;15.20;97.70;;;;;;6235981;23;20405;-93
2021/05/21 12:15:14;;;;;;;0.57;0.57;;;15.20;98.30;;;;;;6237196;23;20386;-92
2021/05/21 12:17:50;;;;;;;2.00;1.00;;;15.20;98.60;;;;;;6237349;23;20393;-91
2021/05/21 12:20:18;;;;;;;0.90;0.70;;;15.30;98.10;;;;;;6238339;23;20393;-91
2021/05/21 12:23:06;;;;;;;1.70;1.00;;;15.10;97.00;;;;;;6236441;23;20386;-92
2021/05/21 12:25:34;;;;;;;1.20;1.00;;;15.30;97.50;;;;;;6235918;23;20689;-91
2021/05/21 12:28:01;;;;;;;4.20;0.80;;;15.30;97.00;;;;;;6237444;23;20545;-92
2021/05/21 12:30:28;;;;;;;1.77;0.77;;;15.40;97.20;;;;;;6237973;23;20402;-93
2021/05/21 12:32:54;;;;;;;1.70;1.40;;;15.30;96.90;;;;;;6236003;23;20443;-93
2021/05/21 12:35:38;;;;;;;1.30;1.20;;;15.20;96.70;;;;;;6239658;22;20378;-91
2021/05/21 12:38:06;;;;;;;5.78;1.70;;;15.00;96.50;;;;;;6237103;23;20385;-94
2021/05/21 12:40:32;;;;;;;4.33;1.00;;;15.20;97.20;;;;;;6239552;22;20934;-92
2021/05/21 12:42:58;;;;;;;2.33;0.93;;;15.20;97.00;;;;;;6237774;23;20394;-92
2021/05/21 12:45:24;;;;;;;1.33;1.23;;;15.10;97.00;;;;;;6237706;23;20401;-95
2021/05/21 12:47:51;;;;;;;2.50;0.80;;;15.20;96.90;;;;;;6264530;22;20517;-91
2021/05/21 12:50:19;;;;;;;3.40;0.73;;;15.20;96.30;;;;;;6241358;22;20151;-92
2021/05/21 12:52:59;;;;;;;1.57;0.70;;;15.00;96.00;;;;;;6236060;23;20768;-91
2021/05/21 12:55:25;;;;;;;0.73;0.73;;;15.00;96.50;;;;;;6238068;23;20581;-91
2021/05/21 12:57:54;;;;;;;1.43;1.07;;;15.00;96.80;;;;;;6241391;22;20378;-92
2021/05/21 13:00:22;;;;;;;1.60;0.67;;;15.00;96.50;;;;;;6236914;23;20389;-90
2021/05/21 13:02:53;;;;;;;0.77;0.77;;;15.00;96.20;;;;;;6236654;23;20413;-91
2021/05/21 13:05:22;;;;;;;0.60;0.57;;;15.00;96.20;;;;;;6237388;22;20378;-94
2021/05/21 13:08:06;;;;;;;1.37;0.90;;;15.00;96.30;;;;;;6236242;23;20473;-92
2021/05/21 13:10:40;;;;;;;1.67;0.80;;;14.90;96.70;;;;;;6239116;23;20401;-91
2021/05/21 13:13:06;;;;;;;2.03;0.80;;;15.00;97.00;;;;;;6236196;23;20456;-90
2021/05/21 13:15:38;;;;;;;4.73;1.40;;;15.10;96.60;;;;;;6236817;23;20473;-90
2021/05/21 13:18:04;;;;;;;3.90;1.57;;;14.90;96.70;;;;;;6238724;22;20864;-93
2021/05/21 13:20:36;;;;;;;1.90;1.00;;;15.00;97.30;;;;;;6237709;23;20394;-94
2021/05/21 13:23:08;;;;;;;1.67;1.00;;;14.90;96.90;;;;;;6235297;23;20435;-93
2021/05/21 13:25:39;;;;;;;1.10;1.00;;;14.70;96.20;;;;;;6235592;23;20398;-93
2021/05/21 13:28:09;;;;;;;1.07;1.00;;;14.50;96.60;;;;;;6235685;23;20441;-91
2021/05/21 13:30:35;;;;;;;2.00;0.90;;;14.50;96.80;;;;;;6238992;23;20389;-93
2021/05/21 13:33:01;;;;;;;2.20;0.80;;;14.40;97.10;;;;;;6237380;23;20477;-91
2021/05/21 13:35:30;;;;;;;2.70;0.80;;;14.40;96.90;;;;;;6235421;23;20436;-92
2021/05/21 13:37:58;;;;;;;0.90;0.70;;;14.40;97.30;;;;;;6237613;23;20378;-91
2021/05/21 13:40:23;;;;;;;1.43;0.80;;;14.50;97.20;;;;;;6238336;22;20443;-91
2021/05/21 13:42:49;;;;;;;1.90;0.90;;;14.40;96.90;;;;;;6235010;23;20386;-93
2021/05/21 13:45:15;;;;;;;2.80;1.10;;;14.10;96.90;;;;;;6236796;22;20882;-93
2021/05/21 13:47:41;;;;;;;3.60;0.90;;;13.80;97.20;;;;;;6236297;23;20191;-92
2021/05/21 13:50:08;;;;;;;3.53;0.80;;;13.70;97.60;;;;;;6236412;23;20162;-92
2021/05/21 13:52:33;;;;;;;5.43;0.97;;;13.60;98.00;;;;;;6260620;22;20448;-92
2021/05/21 13:54:59;;;;;;;2.70;0.87;;;13.70;98.30;;;;;;6234457;23;20398;-93
2021/05/21 13:57:28;;;;;;;1.40;0.63;;;13.60;98.10;;;;;;6237466;22;20398;-91
2021/05/21 13:59:53;;;;;;;1.07;0.57;;;13.60;98.30;;;;;;6236986;22;20158;-95
2021/05/21 14:02:19;;;;;;;0.60;0.60;;;13.60;98.50;;;;;;6236388;23;20418;-93
2021/05/21 14:04:47;;;;;;;0.80;0.50;;;13.70;98.60;;;;;;6235581;23;20593;-94
2021/05/21 14:07:13;;;;;;;2.03;1.30;;;13.70;98.50;;;;;;6234587;23;20254;-92
2021/05/21 14:09:40;;;;;;;1.27;1.00;;;13.70;98.40;;;;;;6235294;23;20641;-91
2021/05/21 14:12:08;;;;;;;0.90;0.80;;;13.80;98.50;;;;;;6236513;23;20163;-93
2021/05/21 14:14:34;;;;;;;0.80;0.67;;;13.70;98.40;;;;;;6236338;23;20436;-93
2021/05/21 14:17:00;;;;;;;1.40;0.80;;;13.60;98.50;;;;;;6237285;23;20402;-93
2021/05/21 14:19:26;;;;;;;0.83;0.83;;;13.60;98.70;;;;;;6237155;23;20166;-93
2021/05/21 14:21:53;;;;;;;4.60;1.07;;;13.60;98.90;;;;;;6262177;22;20761;-91
2021/05/21 14:24:20;;;;;;;1.50;1.30;;;13.50;99.10;;;;;;6235054;23;20378;-94
2021/05/21 14:26:48;;;;;;;2.33;1.10;;;13.60;99.00;;;;;;6233325;23;20816;-91
2021/05/21 14:29:13;;;;;;;0.90;0.77;;;13.60;98.90;;;;;;6261298;22;20401;-92
2021/05/21 14:31:42;;;;;;;1.10;1.00;;;13.50;99.20;;;;;;6235573;23;20477;-92
2021/05/21 14:34:22;;;;;;;5.50;0.93;;;13.60;99.10;;;;;;6234794;22;20198;-91
2021/05/21 14:36:50;;;;;;;0.70;0.70;;;13.60;99.40;;;;;;6234778;23;20386;-92
2021/05/21 14:39:16;;;;;;;1.00;0.80;;;13.60;99.30;;;;;;6260911;22;20394;-92
2021/05/21 14:41:44;;;;;;;0.80;0.80;;;13.50;99.40;;;;;;6234847;23;20374;-91
2021/05/21 14:44:11;;;;;;;0.90;0.90;;;13.50;99.70;;;;;;6234964;23;20397;-91
2021/05/21 14:46:38;;;;;;;2.10;1.07;;;13.40;99.90;;;;;;6234862;23;20469;-91
2021/05/21 14:49:05;;;;;;;1.33;0.70;;;13.60;99.90;;;;;;6234673;23;20402;-91
2021/05/21 14:51:31;;;;;;;1.20;0.80;;;13.50;99.90;;;;;;6236281;22;20366;-92
2021/05/21 14:53:57;;;;;;;0.80;0.80;;;13.40;99.90;;;;;;6237370;22;20378;-91
2021/05/21 14:56:24;;;;;;;1.10;0.90;;;13.20;99.90;;;;;;6234880;23;20437;-91
2021/05/21 14:58:54;;;;;;;1.90;0.90;;;13.30;99.90;;;;;;6260624;22;20806;-92
2021/05/21 15:01:23;;;;;;;3.97;1.40;;;13.40;99.90;;;;;;6236353;23;20994;-90
2021/05/21 15:03:52;;;;;;;0.97;0.87;;;13.30;99.90;;;;;;6213088;23;20446;-91
2021/05/21 15:06:22;;;;;;;1.40;1.10;;;13.40;99.90;;;;;;6211600;23;20706;-91
2021/05/21 15:08:47;;;;;;;0.90;0.70;;;13.60;99.90;;;;;;6234450;23;20441;-94
2021/05/21 15:11:13;;;;;;;1.37;0.80;;;13.70;99.90;;;;;;6237534;23;20925;-91
2021/05/21 15:13:42;;;;;;;0.70;0.70;;;13.80;99.90;;;;;;6237731;23;20246;-91
2021/05/21 15:24:17;;;;;;;0.87;0.87;;;14.30;99.20;;;;;;6236967;23;20406;-92
2021/05/21 15:26:43;;;;;;;1.57;0.70;;;14.50;98.80;;;;;;6212229;23;20244;-92
2021/05/21 15:29:09;;;;;;;0.80;0.80;;;14.40;98.50;;;;;;6237342;23;20386;-94
2021/05/21 15:31:35;;;;;;;0.60;0.60;;;14.10;99.10;;;;;;6211304;23;20204;-93
2021/05/21 15:34:01;;;;;;;1.97;0.67;;;14.10;99.90;;;;;;6209850;23;20408;-91
2021/05/21 15:36:27;;;;;;;1.57;0.60;;;14.00;99.70;;;;;;6238173;23;20190;-92
2021/05/21 15:38:52;;;;;;;1.20;0.60;;;14.10;99.60;;;;;;6235404;23;20163;-93
2021/05/21 15:41:28;;;;;;;0.40;0.40;;;14.00;98.80;;;;;;6238884;23;20436;-95
2021/05/21 15:46:38;;;;;;;0.43;0.43;;;14.10;98.90;;;;;;6238322;23;21000;-90
2021/05/21 15:52:04;;;;;;;7.80;1.57;;;14.40;99.40;;;;;;6239454;23;20194;-92
2021/05/21 15:54:40;;;;;;;1.20;0.63;;;14.20;99.70;;;;;;6209829;23;20437;-91
2021/05/21 15:57:28;;;;;;;1.27;1.10;;;13.90;99.90;;;;;;6212714;23;20400;-91
2021/05/21 15:59:57;;;;;;;0.80;0.80;;;13.70;99.90;;;;;;6236898;23;20402;-91
2021/05/21 16:02:23;;;;;;;1.83;0.70;;;13.70;99.90;;;;;;6238432;23;20402;-92
2021/05/21 16:04:48;;;;;;;0.93;0.90;;;13.70;99.90;;;;;;6239970;23;20967;-92
2021/05/21 16:07:14;;;;;;;1.03;1.00;;;13.50;99.90;;;;;;6212331;23;20191;-95
2021/05/21 16:09:43;;;;;;;0.97;0.80;;;13.40;99.90;;;;;;6238325;23;20159;-91
2021/05/21 16:12:09;;;;;;;1.37;0.70;;;13.50;99.90;;;;;;6236784;23;20162;-95
2021/05/21 16:14:34;;;;;;;1.27;1.17;;;13.50;99.90;;;;;;6211068;23;20435;-93
2021/05/21 16:17:00;;;;;;;1.43;1.00;;;13.40;99.90;;;;;;6212205;23;20162;-93
2021/05/21 16:19:26;;;;;;;1.77;0.53;;;13.30;99.90;;;;;;6232487;23;20237;-92
2021/05/21 16:21:52;;;;;;;2.60;1.20;;;13.40;99.90;;;;;;6207506;23;20438;-92
2021/05/21 16:24:17;;;;;;;0.80;0.80;;;13.50;99.90;;;;;;6230525;23;20554;-93
2021/05/21 16:26:43;;;;;;;1.23;0.70;;;13.50;99.90;;;;;;6209073;23;20202;-91
2021/05/21 16:29:09;;;;;;;2.00;0.60;;;13.40;99.90;;;;;;6208316;23;20605;-93
2021/05/21 16:31:36;;;;;;;1.03;0.57;;;13.50;99.90;;;;;;6208711;23;20189;-95
2021/05/21 16:34:04;;;;;;;1.77;0.90;;;13.50;99.90;;;;;;6204662;23;20401;-91
2021/05/21 16:36:33;;;;;;;1.20;0.80;;;13.70;99.90;;;;;;6206357;23;20422;-92
2021/05/21 16:38:59;;;;;;;3.23;0.50;;;13.60;99.90;;;;;;6232644;23;20386;-88
2021/05/21 16:41:25;;;;;;;1.07;0.57;;;13.40;99.90;;;;;;6232192;23;20388;-90
2021/05/21 16:43:51;;;;;;;0.77;0.67;;;13.40;99.90;;;;;;6206161;23;20394;-93
2021/05/21 16:46:17;;;;;;;0.50;0.50;;;13.20;99.90;;;;;;6231843;23;20447;-93
2021/05/21 16:48:44;;;;;;;1.27;0.60;;;13.10;99.90;;;;;;6202135;23;20274;-90
2021/05/21 16:51:10;;;;;;;0.73;0.73;;;13.00;99.90;;;;;;6206593;23;20382;-91
2021/05/21 16:53:40;;;;;;;0.57;0.57;;;13.20;99.90;;;;;;6206977;23;20790;-94
2021/05/21 16:56:12;;;;;;;0.80;0.80;;;13.20;99.90;;;;;;6206783;23;20494;-92
2021/05/21 16:58:39;;;;;;;0.70;0.70;;;13.20;99.90;;;;;;6208093;23;20499;-92
2021/05/21 17:01:07;;;;;;;1.13;0.63;;;13.10;99.90;;;;;;6233134;23;20378;-91
2021/05/21 17:03:33;;;;;;;0.90;0.87;;;13.10;99.90;;;;;;6228792;23;20417;-90
2021/05/21 17:06:01;;;;;;;0.70;0.70;;;13.10;99.90;;;;;;6228482;23;20426;-93
2021/05/21 17:08:26;;;;;;;1.03;0.70;;;13.10;99.90;;;;;;6232899;22;20605;-93
2021/05/21 17:10:54;;;;;;;0.80;0.80;;;13.00;99.90;;;;;;6230267;23;20396;-93
2021/05/21 17:13:24;;;;;;;2.03;0.90;;;13.20;99.90;;;;;;6230115;23;20242;-91
2021/05/21 17:15:56;;;;;;;1.67;0.73;;;13.30;99.90;;;;;;6229126;23;20409;-89
2021/05/21 17:21:11;;;;;;;2.77;0.60;;;13.30;99.90;;;;;;6230651;23;20432;-88
2021/05/21 17:47:30;;;;;;;1.20;1.10;;;12.80;99.90;;;;;;6199824;22;20472;-94
2021/05/21 17:50:23;;;;;;;2.60;1.60;;;12.80;99.90;;;;;;6231018;23;20394;-94
2021/05/21 18:04:22;;;;;;;1.07;1.03;;;12.60;99.90;;;;;;6138568;23;20729;-89
2021/05/21 18:28:20;;;;;;;1.20;1.00;;;12.40;99.90;;;;;;6230930;22;20490;-88
2021/05/21 18:49:22;;;;;;;2.67;1.70;;;12.30;99.90;;;;;;6232000;23;20443;-90
2021/05/21 19:03:12;;;;;;;1.20;1.20;;;12.30;99.90;;;;;;6230128;22;20895;-88
2021/05/21 19:05:38;;;;;;;2.53;1.50;;;12.30;99.90;;;;;;6227943;23;20885;-88
2021/05/21 19:08:10;;;;;;;1.47;1.37;;;12.20;99.90;;;;;;6230015;23;20194;-88
2021/05/21 19:13:29;;;;;;;1.40;1.20;;;12.20;99.90;;;;;;6232656;22;20897;-88
2021/05/21 19:15:59;;;;;;;1.70;0.87;;;12.20;99.90;;;;;;6228770;23;20437;-89
2021/05/21 19:18:28;;;;;;;0.90;0.83;;;12.30;99.90;;;;;;6227179;23;20397;-88
2021/05/21 19:23:24;;;;;;;1.67;1.57;;;12.30;99.90;;;;;;6231830;23;20768;-89
2021/05/21 19:25:51;;;;;;;1.10;1.00;;;12.30;99.90;;;;;;6229984;23;20246;-89
2021/05/21 20:02:24;;;;;;;1.00;0.77;;;12.50;99.90;;;;;;6233880;23;20791;-88
2021/05/21 20:13:00;;;;;;;0.90;0.70;;;12.50;99.90;;;;;;6230810;23;20887;-91